»·PEaware :: SWA1097 KLAS-KASE

SWA1097 :: KLAS-KASE

FLIGHT INFORMATION

Flight Status: Arrived
Operator:
Southwest Airlines
More flights by this operator :: More flights under this callsign
Pilot: Adam A. (5112)
Aircraft: BOEING 737-300
(B733)
More flights by this aircraft type
Origin: KLAS McCarran Intl
United States
Destination: KASE Aspen-Pitkin Co/Sardy
United States
More flights between these airports :: More routes between these airports
Route: +STAAV6 BCE HVE DBL
File this flight plan on PilotEdge
Remarks:
Altitude:
(Current/Filed)
33,000ft
Speed:
(Current/Filed)
433kts
Departed: 28-Aug-16 05:30 PM
Arrived: 28-Aug-16 06:48 PM
Distance/Time
Traveled:
436nm/1:18
Distance/Time
To Go:
Arrived

Flight Plot

Page will automatically refresh every two minutes.

Flight plan parsing failed; only flown route is shown


Map Options




Map Legend


Flown Route
Filed Route
Departure Airport
Arrival Airport
Navaid (VOR, NDB)
Fix

Horizontal Profiles

Position Reports

Time Latitude Longitude Heading Altitude Ground
Speed
28-Aug-16 16:27 36.079942 -115.147089 57 2189ft 0kts
28-Aug-16 16:28 36.079942 -115.147089 57 2189ft 0kts
28-Aug-16 16:29 36.079942 -115.147089 57 2189ft 0kts
28-Aug-16 16:30 36.079942 -115.147089 57 2189ft 0kts
28-Aug-16 16:31 36.079942 -115.147089 57 2189ft 0kts
28-Aug-16 16:32 36.079942 -115.147089 57 2189ft 0kts
28-Aug-16 16:33 36.079942 -115.147089 57 2189ft 0kts
28-Aug-16 16:34 36.079942 -115.147089 57 2189ft 0kts
28-Aug-16 16:35 36.079942 -115.147089 57 2189ft 0kts
28-Aug-16 16:36 36.079942 -115.147089 57 2189ft 0kts
28-Aug-16 16:37 36.079942 -115.147089 57 2189ft 0kts
28-Aug-16 16:38 36.079942 -115.147089 57 2189ft 0kts
28-Aug-16 16:39 36.079942 -115.147089 57 2189ft 0kts
28-Aug-16 16:40 36.079942 -115.147089 57 2189ft 0kts
28-Aug-16 16:41 36.079942 -115.147089 57 2189ft 0kts
28-Aug-16 16:42 36.079942 -115.147089 57 2189ft 0kts
28-Aug-16 16:43 36.079942 -115.147089 57 2189ft 0kts
28-Aug-16 16:44 36.079942 -115.147089 57 2189ft 0kts
28-Aug-16 16:45 36.079942 -115.147089 57 2189ft 0kts
28-Aug-16 16:46 36.079942 -115.147089 57 2189ft 0kts
28-Aug-16 16:47 36.079942 -115.147089 57 2189ft 0kts
28-Aug-16 16:48 36.079942 -115.147089 57 2189ft 0kts
28-Aug-16 16:49 36.079942 -115.147089 57 2189ft 0kts
28-Aug-16 16:50 36.079942 -115.147089 57 2189ft 0kts
28-Aug-16 16:51 36.079942 -115.147089 57 2189ft 0kts
28-Aug-16 16:52 36.079942 -115.147089 57 2189ft 0kts
28-Aug-16 16:53 36.079942 -115.147089 57 2189ft 0kts
28-Aug-16 16:54 36.079942 -115.147089 57 2189ft 0kts
28-Aug-16 16:55 36.079942 -115.147089 57 2189ft 0kts
28-Aug-16 16:56 36.079942 -115.147089 57 2189ft 0kts
28-Aug-16 16:57 36.079942 -115.147089 57 2189ft 0kts
28-Aug-16 16:58 36.079942 -115.147089 57 2189ft 0kts
28-Aug-16 16:59 36.079942 -115.147089 57 2189ft 0kts
28-Aug-16 17:00 36.079942 -115.147089 57 2189ft 0kts
28-Aug-16 17:01 36.079942 -115.147089 57 2189ft 0kts
28-Aug-16 17:02 36.079942 -115.147089 57 2189ft 0kts
28-Aug-16 17:03 36.079942 -115.147089 57 2189ft 0kts
28-Aug-16 17:04 36.079942 -115.147089 57 2189ft 0kts
28-Aug-16 17:05 36.079942 -115.147089 57 2189ft 0kts
28-Aug-16 17:06 36.079942 -115.147089 57 2189ft 0kts
28-Aug-16 17:07 36.079942 -115.147089 57 2189ft 0kts
28-Aug-16 17:08 36.079942 -115.147089 57 2189ft 0kts
28-Aug-16 17:09 36.079942 -115.147089 57 2189ft 0kts
28-Aug-16 17:10 36.079942 -115.147089 57 2189ft 0kts
28-Aug-16 17:11 36.079942 -115.147089 57 2189ft 0kts
28-Aug-16 17:12 36.079942 -115.147089 57 2189ft 0kts
28-Aug-16 17:13 36.079942 -115.147089 57 2189ft 0kts
28-Aug-16 17:14 36.079942 -115.147089 57 2189ft 0kts
28-Aug-16 17:15 36.079942 -115.147089 57 2189ft 0kts
28-Aug-16 17:16 36.079942 -115.147089 57 2189ft 0kts
28-Aug-16 17:17 36.079942 -115.147089 57 2189ft 0kts
28-Aug-16 17:18 36.079617 -115.147568 13 2189ft 0kts
28-Aug-16 17:19 36.079515 -115.147563 340 2189ft 0kts
28-Aug-16 17:20 36.079738 -115.148132 250 2189ft 8kts
28-Aug-16 17:21 36.078835 -115.148161 163 2189ft 6kts
28-Aug-16 17:22 36.078284 -115.143818 94 2189ft 18kts
28-Aug-16 17:23 36.078242 -115.137216 89 2189ft 19kts
28-Aug-16 17:24 36.078241 -115.130466 90 2189ft 19kts
28-Aug-16 17:25 36.078262 -115.124339 90 2189ft 14kts
28-Aug-16 17:26 36.077481 -115.121574 132 2189ft 2kts
28-Aug-16 17:27 36.076794 -115.121297 182 2189ft 10kts
28-Aug-16 17:28 36.076310 -115.143092 267 2211ft 156kts
28-Aug-16 17:29 36.074915 -115.209799 269 3695ft 237kts
28-Aug-16 17:30 36.092266 -115.284764 336 6671ft 250kts
28-Aug-16 17:31 36.157517 -115.280988 45 8109ft 260kts
28-Aug-16 17:32 36.191700 -115.197787 70 10314ft 319kts
28-Aug-16 17:33 36.196106 -115.080822 89 12845ft 356kts
28-Aug-16 17:34 36.197216 -114.956651 88 15792ft 372kts
28-Aug-16 17:35 36.198791 -114.828046 89 18425ft 387kts
28-Aug-16 17:36 36.200022 -114.693719 90 19270ft 398kts
28-Aug-16 17:37 36.198760 -114.556989 90 21728ft 407kts
28-Aug-16 17:38 36.197314 -114.415692 86 23263ft 421kts
28-Aug-16 17:39 36.272917 -114.318907 27 25181ft 428kts
28-Aug-16 17:40 36.355185 -114.211491 48 26863ft 440kts
28-Aug-16 17:41 36.436412 -114.097706 48 28430ft 450kts
28-Aug-16 17:42 36.518614 -113.982684 48 30395ft 447kts
28-Aug-16 17:43 36.598652 -113.870634 48 32171ft 444kts
28-Aug-16 17:44 36.680083 -113.756535 48 33109ft 445kts
28-Aug-16 17:45 36.760721 -113.642535 48 33078ft 442kts
28-Aug-16 17:46 36.841624 -113.527766 48 33156ft 442kts
28-Aug-16 17:47 36.922383 -113.412804 48 33229ft 444kts
28-Aug-16 17:48 37.003157 -113.297417 48 33288ft 445kts
28-Aug-16 17:49 37.083795 -113.181820 48 33313ft 446kts
28-Aug-16 17:50 37.151205 -113.084873 48 33307ft 445kts
28-Aug-16 17:51 37.226546 -112.976179 48 33311ft 445kts
28-Aug-16 17:52 37.306646 -112.860672 48 33312ft 445kts
28-Aug-16 17:53 37.386985 -112.744478 49 33315ft 443kts
28-Aug-16 17:54 37.466645 -112.628339 49 33380ft 442kts
28-Aug-16 17:55 37.546134 -112.512033 49 33432ft 442kts
28-Aug-16 17:56 37.624700 -112.396672 49 33429ft 442kts
28-Aug-16 17:57 37.701313 -112.278168 59 33428ft 441kts
28-Aug-16 17:58 37.760892 -112.144198 59 33430ft 441kts
28-Aug-16 17:59 37.822014 -112.011747 59 33430ft 441kts
28-Aug-16 18:00 37.882723 -111.879872 59 33430ft 441kts
28-Aug-16 18:01 37.944171 -111.746844 60 33430ft 441kts
28-Aug-16 18:02 38.005000 -111.613483 60 33430ft 441kts
28-Aug-16 18:03 38.065639 -111.479975 60 33430ft 441kts
28-Aug-16 18:04 38.126205 -111.346078 60 33430ft 441kts
28-Aug-16 18:05 38.186694 -111.211789 60 33430ft 441kts
28-Aug-16 18:06 38.246940 -111.077474 60 33419ft 442kts
28-Aug-16 18:07 38.307143 -110.942696 60 33304ft 439kts
28-Aug-16 18:08 38.366393 -110.810641 60 33224ft 438kts
28-Aug-16 18:09 38.423110 -110.674447 73 33229ft 438kts
28-Aug-16 18:10 38.453997 -110.525992 74 33229ft 438kts
28-Aug-16 18:11 38.485942 -110.377709 74 33228ft 438kts
28-Aug-16 18:12 38.517687 -110.229565 74 33228ft 438kts
28-Aug-16 18:13 38.549419 -110.080468 74 33228ft 438kts
28-Aug-16 18:14 38.580287 -109.934409 74 33229ft 438kts
28-Aug-16 18:15 38.611560 -109.787809 75 33228ft 438kts
28-Aug-16 18:16 38.642586 -109.639248 75 33228ft 438kts
28-Aug-16 18:17 38.673130 -109.491745 75 33228ft 438kts
28-Aug-16 18:18 38.703485 -109.343782 75 32513ft 430kts
28-Aug-16 18:19 38.733160 -109.198488 75 31641ft 432kts
28-Aug-16 18:20 38.763136 -109.050704 75 30783ft 439kts
28-Aug-16 18:21 38.793335 -108.900476 75 29899ft 440kts
28-Aug-16 18:22 38.830040 -108.754643 54 29012ft 441kts
28-Aug-16 18:23 38.907292 -108.633979 50 28136ft 443kts
28-Aug-16 18:24 38.974913 -108.506108 79 27239ft 444kts
28-Aug-16 18:25 38.988976 -108.351563 66 26366ft 446kts
28-Aug-16 18:26 39.023229 -108.201596 75 25483ft 444kts
28-Aug-16 18:27 39.062908 -108.054065 60 24578ft 439kts
28-Aug-16 18:28 39.115530 -107.914907 66 23614ft 434kts
28-Aug-16 18:29 39.169138 -107.783023 59 22043ft 421kts
28-Aug-16 18:30 39.217658 -107.649398 68 20451ft 411kts
28-Aug-16 18:31 39.258146 -107.515775 68 18871ft 401kts
28-Aug-16 18:32 39.296602 -107.388610 68 17332ft 392kts
28-Aug-16 18:33 39.333607 -107.266018 68 15807ft 375kts
28-Aug-16 18:34 39.384248 -107.170412 21 15062ft 326kts
28-Aug-16 18:35 39.472189 -107.129077 19 15103ft 341kts
28-Aug-16 18:36 39.552911 -107.080687 50 15099ft 302kts
28-Aug-16 18:37 39.575296 -106.993499 68 15009ft 258kts
28-Aug-16 18:38 39.557915 -106.911569 139 14659ft 268kts
28-Aug-16 18:39 39.495426 -106.909494 227 13557ft 228kts
28-Aug-16 18:40 39.461907 -106.960005 182 12920ft 191kts
28-Aug-16 18:41 39.422839 -106.926340 133 12987ft 199kts
28-Aug-16 18:42 39.370101 -106.918931 183 12939ft 200kts
28-Aug-16 18:43 39.322048 -106.917593 150 11620ft 161kts
28-Aug-16 18:44 39.283071 -106.896548 155 9918ft 160kts
28-Aug-16 18:45 39.249249 -106.880940 158 8328ft 142kts
28-Aug-16 18:46 39.223386 -106.868644 131 7826ft 25kts
28-Aug-16 18:47 39.220078 -106.865949 159 7826ft 13kts
28-Aug-16 18:48 39.218188 -106.863985 250 7826ft 9kts
28-Aug-16 18:49 39.218171 -106.864046 251 7826ft 0kts
28-Aug-16 18:50 39.218171 -106.864046 251 7826ft 0kts
28-Aug-16 18:51 39.218171 -106.864046 251 7826ft 0kts
28-Aug-16 18:52 39.218171 -106.864046 251 7826ft 0kts
28-Aug-16 18:53 39.218171 -106.864046 251 7826ft 0kts
28-Aug-16 18:54 39.218171 -106.864046 251 7826ft 0kts
28-Aug-16 18:55 39.218171 -106.864046 251 7826ft 0kts
28-Aug-16 18:56 39.218171 -106.864046 251 7826ft 0kts
28-Aug-16 18:57 39.218171 -106.864046 251 7826ft 0kts
28-Aug-16 18:58 39.218171 -106.864046 251 7826ft 0kts
28-Aug-16 18:59 39.218171 -106.864046 251 7826ft 0kts
28-Aug-16 19:00 39.218171 -106.864046 251 7826ft 0kts

Navigation Log

Ident Type
Flight plan parsing failed, navigation log unavailable